Froeybanken — LJML — position and weather

sailwx.info

Track history (hours):
 
Tides and Currents Weather Stations Pressure Air Temp Water Temp Dewpoint Dewpoint Depression Visibility Wind Speed Wind Dir Waves Ship Positions

Froeybanken

Last reported at 2017-Feb-11 15:33 UTC. Time now 2017-Feb-20 11:12 UTC.
Position N 68°58' E 017°10'.
Warning: this ship's position is 8 days out of date.

Length 22 m; draft 3.6 m.

Type: Fishing. MMSI: 257470500.

Date/timePositionNaut miles runAvg speedWind from/ knotsBaromVisibWave heightAir tempDewpointWater temp
2017-Feb-11 15:33N 68°58' E 017°10'9 8.7
2017-Feb-11 14:33N 69°05' E 017°24'9 8.8
2017-Feb-11 13:33N 69°09' E 017°47'7 6.7
2017-Feb-11 12:33N 69°14' E 017°58'8 7.7
2017-Feb-11 11:29N 69°22' E 018°06'  
2017-Feb-07 03:07N 70°40' E 021°56'  
2017-Feb-04 10:33N 69°19' E 017°58'8 8.1
2017-Feb-04 09:33N 69°11' E 017°58'8 8.2
2017-Feb-04 08:33N 69°07' E 017°37'9 8.4
2017-Feb-04 07:32N 69°02' E 017°18'13 8.7
2017-Feb-04 06:04N 68°52' E 016°57'4 8.2
2017-Feb-04 05:33N 68°48' E 016°51'79 7.9
2017-Feb-03 19:29N 68°02' E 013°56'  
Track history (hours):
 
Tides and Currents Weather Stations Pressure Air Temp Water Temp Dewpoint Dewpoint Depression Visibility Wind Speed Wind Dir Waves Ship Positions

Froeybanken

Last reported at 2017-Feb-11 15:33 UTC. Time now 2017-Feb-20 11:12 UTC.
Position N 68°58' E 017°10'.
Warning: this ship's position is 8 days out of date.

Length 22 m; draft 3.6 m.

Type: Fishing. MMSI: 257470500.

Date/timePositionNaut miles runAvg speedWind from/ knotsBaromVisibWave heightAir tempDewpointWater temp
2017-Feb-11 15:33N 68°58' E 017°10'9 8.7
2017-Feb-11 14:33N 69°05' E 017°24'9 8.8
2017-Feb-11 13:33N 69°09' E 017°47'7 6.7
2017-Feb-11 12:33N 69°14' E 017°58'8 7.7
2017-Feb-11 11:29N 69°22' E 018°06'  
2017-Feb-07 03:07N 70°40' E 021°56'  
2017-Feb-04 10:33N 69°19' E 017°58'8 8.1
2017-Feb-04 09:33N 69°11' E 017°58'8 8.2
2017-Feb-04 08:33N 69°07' E 017°37'9 8.4
2017-Feb-04 07:32N 69°02' E 017°18'13 8.7
2017-Feb-04 06:04N 68°52' E 016°57'4 8.2
2017-Feb-04 05:33N 68°48' E 016°51'79 7.9
2017-Feb-03 19:29N 68°02' E 013°56'  

Dump ship's entire track history